Terminal Aerodrome Forecast
Issued by NWS Buffalo, NY

Home | Current Version | Previous Version | Text Only | Print | Product List | Glossary On
Versions: 1 2 3 4 5 6 7 8 9 10 11 12 13 14 15 16 17 18 19 20 21 22 23 24 25 26 27
000
FTUS41 KBUF 262109 AAB
TAFBUF
TAF AMD
KBUF 262109Z 2621/2718 17014KT P6SM BKN180
     FM270000 17011G18KT 6SM -SHRA BKN035
     FM270500 18013G20KT P6SM BKN035
     FM271300 21009KT P6SM BKN012
     FM271500 23010G17KT P6SM BKN012=

USA.gov is the U.S. government's official web portal to all federal, state and local government web resources and services.